Shirley, Arkansas
Current Conditions -  °F | °C
As of 12:35 PM on Sunday 21 Dec 2014 (Local Time) from KCCA Reporting Station
Haze Haze  
Wind Chill: 48°   Ceiling: 4900
Heat Index: 48°   Visibility: 5mi
Dew Point: 36°   Wind: 0mph
Humidity: 62%   Direction: NA
Pressure: 30.09"   Gusts: NA
Location:  35.66°N, 92.32°W
Report Text: KCCA 211835Z AUTO 00000KT 5SM HZ OVC049 09/02 A3009 RMK AO2
Loading
Personal Weather Stations






























Interactive Weather Map New forecast layout! Learn more

10-Day Weather Forecast

Advertisements
Track Severe Weather on mobile